createdAt,value
2022-09-17T00:01:31.747Z,14.52
2022-09-17T00:04:04.340Z,8.95
2022-09-17T00:06:36.877Z,12.80
2022-09-17T00:09:06.255Z,7.75
2022-09-17T00:11:36.924Z,11.68
2022-09-17T00:14:07.172Z,15.73
2022-09-17T00:16:39.285Z,13.05
2022-09-17T00:19:10.215Z,9.80
2022-09-17T00:21:39.798Z,13.90
2022-09-17T00:24:08.864Z,13.30
2022-09-17T00:26:37.401Z,11.95
2022-09-17T00:29:06.271Z,16.48
2022-09-17T00:31:35.827Z,15.18
2022-09-17T00:34:05.506Z,14.77
2022-09-17T00:36:36.547Z,9.90
2022-09-17T00:39:07.795Z,16.25
2022-09-17T00:41:37.812Z,6.40
2022-09-17T00:44:38.588Z,7.95
2022-09-17T00:47:09.570Z,8.57
2022-09-17T00:49:37.725Z,7.88
2022-09-17T00:52:11.584Z,12.45
2022-09-17T00:54:45.723Z,11.77
2022-09-17T00:57:14.092Z,7.75
2022-09-17T00:59:42.570Z,8.40
2022-09-17T01:02:11.453Z,8.77
2022-09-17T01:04:39.835Z,7.70
2022-09-17T01:07:12.640Z,10.05
2022-09-17T01:09:49.920Z,11.77
2022-09-17T01:12:31.907Z,8.30
2022-09-17T01:15:16.699Z,9.20
2022-09-17T01:17:53.873Z,11.60
2022-09-17T01:21:08.062Z,8.43
2022-09-17T01:24:07.330Z,10.60
2022-09-17T01:27:05.765Z,17.85
2022-09-17T01:29:51.149Z,11.68
2022-09-17T01:32:26.816Z,19.40
2022-09-17T01:35:00.563Z,12.57
2022-09-17T01:37:34.898Z,17.48
2022-09-17T01:40:09.113Z,16.70
2022-09-17T01:42:44.251Z,14.10
2022-09-17T01:45:17.839Z,15.32
2022-09-17T01:47:52.245Z,20.10
2022-09-17T01:50:25.384Z,13.75
2022-09-17T01:52:56.641Z,24.30
2022-09-17T01:55:31.037Z,15.07
2022-09-17T01:58:03.695Z,12.75
2022-09-17T02:00:32.303Z,16.90
2022-09-17T02:03:08.368Z,18.73
2022-09-17T02:05:40.655Z,19.48
2022-09-17T02:08:14.915Z,21.50
2022-09-17T02:10:47.474Z,16.88
2022-09-17T02:13:21.145Z,20.63
2022-09-17T02:15:53.788Z,22.95
2022-09-17T02:18:29.019Z,18.92
2022-09-17T02:21:05.038Z,18.93
2022-09-17T02:23:37.949Z,21.47
2022-09-17T02:26:10.853Z,28.52
2022-09-17T02:28:44.214Z,16.40
2022-09-17T02:31:12.768Z,22.97
2022-09-17T02:33:44.765Z,16.17
2022-09-17T02:36:13.266Z,17.90
2022-09-17T02:38:45.598Z,19.23
2022-09-17T02:41:17.501Z,11.55
2022-09-17T02:43:57.055Z,19.53
2022-09-17T02:46:51.658Z,15.67
2022-09-17T02:49:40.979Z,14.90
2022-09-17T02:52:16.947Z,16.20
2022-09-17T02:55:00.675Z,19.43
2022-09-17T02:57:33.252Z,19.40
2022-09-17T03:00:08.385Z,21.97
2022-09-17T03:02:40.832Z,12.53
2022-09-17T03:05:11.262Z,16.87
2022-09-17T03:07:39.758Z,11.63
2022-09-17T03:10:08.877Z,12.90
2022-09-17T03:12:38.616Z,17.63
2022-09-17T03:15:07.603Z,8.32
2022-09-17T03:17:35.873Z,12.27
2022-09-17T03:20:04.854Z,10.10
2022-09-17T03:22:34.433Z,8.82
2022-09-17T03:25:02.731Z,6.95
2022-09-17T03:27:30.889Z,6.35
2022-09-17T03:29:59.450Z,4.45
2022-09-17T03:32:27.706Z,9.88
2022-09-17T03:34:55.874Z,7.25
2022-09-17T03:37:24.070Z,5.70
2022-09-17T03:39:53.593Z,4.75
2022-09-17T03:42:21.850Z,6.93
2022-09-17T03:44:50.024Z,4.68
2022-09-17T03:47:18.210Z,4.97
2022-09-17T03:49:46.524Z,6.30
2022-09-17T03:52:14.679Z,9.70
2022-09-17T03:54:42.806Z,6.50
2022-09-17T03:57:12.354Z,9.73
2022-09-17T03:59:40.539Z,11.77
2022-09-17T04:02:08.823Z,4.88
2022-09-17T04:04:37.214Z,4.18
2022-09-17T04:07:05.587Z,6.18
2022-09-17T04:09:35.375Z,3.27
2022-09-17T04:12:04.260Z,6.50
2022-09-17T04:14:34.866Z,7.17
2022-09-17T04:17:03.066Z,6.43
2022-09-17T04:19:31.356Z,9.60
2022-09-17T04:22:00.240Z,7.15
2022-09-17T04:24:28.486Z,6.50
2022-09-17T04:26:56.649Z,6.22
2022-09-17T04:29:24.942Z,5.35
2022-09-17T04:31:54.662Z,8.43
2022-09-17T04:34:22.858Z,7.93
2022-09-17T04:36:51.073Z,4.82
2022-09-17T04:39:19.235Z,6.55
2022-09-17T04:41:47.993Z,7.05
2022-09-17T04:44:16.253Z,5.60
2022-09-17T04:46:44.447Z,3.22
2022-09-17T04:49:14.188Z,6.15
2022-09-17T04:51:42.385Z,4.40
2022-09-17T04:54:10.601Z,4.45
2022-09-17T04:56:38.792Z,3.97
2022-09-17T04:59:06.964Z,3.70
2022-09-17T05:01:35.133Z,4.63
2022-09-17T05:04:03.605Z,3.50
2022-09-17T05:06:33.127Z,3.65
2022-09-17T05:09:02.158Z,3.13
2022-09-17T05:11:30.490Z,5.20
2022-09-17T05:13:58.676Z,3.83
2022-09-17T05:16:27.089Z,4.18
2022-09-17T05:18:55.721Z,2.30
2022-09-17T05:21:23.912Z,2.83
2022-09-17T05:23:53.718Z,5.18
2022-09-17T05:26:22.417Z,6.13
2022-09-17T05:28:50.668Z,4.00
2022-09-17T05:31:18.840Z,0.93
2022-09-17T05:33:48.347Z,1.65
2022-09-17T05:36:16.466Z,1.50
2022-09-17T05:38:44.676Z,5.63
2022-09-17T05:41:14.276Z,0.63
2022-09-17T05:43:44.457Z,3.47
2022-09-17T05:46:12.994Z,7.35
2022-09-17T05:48:41.236Z,3.83
2022-09-17T05:51:09.489Z,3.22
2022-09-17T05:53:37.930Z,3.90
2022-09-17T05:56:06.559Z,4.28
2022-09-17T05:58:36.204Z,5.20
2022-09-17T06:01:04.500Z,6.90
2022-09-17T06:03:32.697Z,4.95
2022-09-17T06:06:01.725Z,5.68
2022-09-17T06:08:30.838Z,4.20
2022-09-17T06:11:02.235Z,4.63
2022-09-17T06:13:30.982Z,5.68
2022-09-17T06:16:01.515Z,2.03
2022-09-17T06:18:30.845Z,2.33
2022-09-17T06:21:01.008Z,4.50
2022-09-17T06:23:35.171Z,5.32
2022-09-17T06:26:04.765Z,6.45
2022-09-17T06:28:37.882Z,5.13
2022-09-17T06:31:12.652Z,7.43
2022-09-17T06:33:41.141Z,11.50
2022-09-17T06:36:14.122Z,4.47
2022-09-17T06:38:43.556Z,10.30
2022-09-17T06:41:12.433Z,6.95
2022-09-17T06:43:41.795Z,11.05
2022-09-17T06:46:12.756Z,8.63
2022-09-17T06:48:40.994Z,3.28
2022-09-17T06:51:11.934Z,2.95
2022-09-17T06:53:40.727Z,6.32
2022-09-17T06:56:10.386Z,4.82
2022-09-17T06:58:41.494Z,6.32
2022-09-17T07:01:12.930Z,4.10
2022-09-17T07:03:44.023Z,11.85
2022-09-17T07:06:13.004Z,7.03
2022-09-17T07:08:41.608Z,7.78
2022-09-17T07:11:09.839Z,4.88
2022-09-17T07:13:38.018Z,8.50
2022-09-17T07:16:07.459Z,4.85
2022-09-17T07:18:37.184Z,5.85
2022-09-17T07:21:07.413Z,5.38
2022-09-17T07:23:37.265Z,3.40
2022-09-17T07:26:07.374Z,2.17
2022-09-17T07:28:36.068Z,11.18
2022-09-17T07:31:06.467Z,10.65
2022-09-17T07:33:37.845Z,4.72
2022-09-17T07:36:08.023Z,8.00
2022-09-17T07:38:36.554Z,3.70
2022-09-17T07:41:06.366Z,3.47
2022-09-17T07:43:35.762Z,2.80
2022-09-17T07:46:06.527Z,12.35
2022-09-17T07:48:35.482Z,4.75
2022-09-17T07:51:05.162Z,11.57
2022-09-17T07:53:33.343Z,3.15
2022-09-17T07:56:02.275Z,2.80
2022-09-17T07:58:32.600Z,3.03
2022-09-17T08:01:04.161Z,1.17
2022-09-17T08:03:32.432Z,3.97
2022-09-17T08:06:06.693Z,6.63
2022-09-17T08:08:36.941Z,1.70
2022-09-17T08:11:07.741Z,6.90
2022-09-17T08:13:36.078Z,2.55
2022-09-17T08:16:06.575Z,5.18
2022-09-17T08:18:35.760Z,4.32
2022-09-17T08:21:07.009Z,5.93
2022-09-17T08:23:37.415Z,2.72
2022-09-17T08:26:08.575Z,4.88
2022-09-17T08:28:37.237Z,2.75
2022-09-17T08:31:06.862Z,0.75
2022-09-17T08:33:36.582Z,1.88
2022-09-17T08:36:07.073Z,3.47
2022-09-17T08:38:38.340Z,2.75
2022-09-17T08:41:20.373Z,2.78
2022-09-17T08:43:53.670Z,4.22
2022-09-17T08:46:22.317Z,2.92
2022-09-17T08:48:57.375Z,3.08
2022-09-17T08:51:36.843Z,1.60
2022-09-17T08:54:11.314Z,3.47
2022-09-17T08:56:41.605Z,3.97
2022-09-17T08:59:22.767Z,4.75
2022-09-17T09:02:00.651Z,3.47
2022-09-17T09:05:03.705Z,0.90
2022-09-17T09:07:42.489Z,1.20
2022-09-17T09:10:18.355Z,6.00
2022-09-17T09:12:50.187Z,1.88
2022-09-17T09:15:27.259Z,3.33
2022-09-17T09:17:55.924Z,1.20
2022-09-17T09:20:33.335Z,2.53
2022-09-17T09:23:10.155Z,3.17
2022-09-17T09:25:43.735Z,4.15
2022-09-17T09:28:33.009Z,5.93
2022-09-17T09:31:17.760Z,3.42
2022-09-17T09:33:48.086Z,4.25
2022-09-17T09:36:21.774Z,4.22
2022-09-17T09:38:57.701Z,5.25
2022-09-17T09:41:32.755Z,6.25
2022-09-17T09:44:06.952Z,4.07
2022-09-17T09:47:02.985Z,7.47
2022-09-17T09:49:46.349Z,0.25
2022-09-17T09:52:28.888Z,11.95
2022-09-17T09:55:17.842Z,5.43
2022-09-17T09:57:48.532Z,2.38
2022-09-17T10:00:30.041Z,2.03
2022-09-17T10:03:05.340Z,1.40
2022-09-17T10:05:33.780Z,1.48
2022-09-17T10:08:11.114Z,3.20
2022-09-17T10:10:55.900Z,3.72
2022-09-17T10:13:25.072Z,2.97
2022-09-17T10:15:53.550Z,3.42
2022-09-17T10:18:23.423Z,2.47
2022-09-17T10:20:59.504Z,5.72
2022-09-17T10:23:30.207Z,8.05
2022-09-17T10:25:59.827Z,8.98
2022-09-17T10:28:46.754Z,6.50
2022-09-17T10:31:15.461Z,6.80
2022-09-17T10:33:54.401Z,5.25
2022-09-17T10:36:39.665Z,8.52
2022-09-17T10:39:31.839Z,4.70
2022-09-17T10:42:03.289Z,6.20
2022-09-17T10:44:34.563Z,3.58
2022-09-17T10:47:15.368Z,3.00
2022-09-17T10:49:45.978Z,4.65
2022-09-17T10:52:24.718Z,3.22
2022-09-17T10:55:07.141Z,8.73
2022-09-17T10:57:55.149Z,9.25
2022-09-17T11:00:24.897Z,15.25
2022-09-17T11:03:37.851Z,9.15
2022-09-17T11:06:23.980Z,10.45
2022-09-17T11:09:03.620Z,12.18
2022-09-17T11:11:45.787Z,11.13
2022-09-17T11:14:27.771Z,8.82
2022-09-17T11:17:04.162Z,6.15
2022-09-17T11:19:45.484Z,11.43
2022-09-17T11:22:23.186Z,11.85
2022-09-17T11:25:12.506Z,9.07
2022-09-17T11:27:50.417Z,5.80
2022-09-17T11:30:21.835Z,7.05
2022-09-17T11:33:07.408Z,9.52
2022-09-17T11:35:40.121Z,5.35
2022-09-17T11:38:14.229Z,14.52
2022-09-17T11:40:45.663Z,5.88
2022-09-17T11:43:23.166Z,11.23
2022-09-17T11:46:01.364Z,11.68
2022-09-17T11:48:37.433Z,7.05
2022-09-17T11:51:16.064Z,9.57
2022-09-17T11:53:49.153Z,10.52
2022-09-17T11:56:22.792Z,9.10
2022-09-17T11:58:59.206Z,8.85
2022-09-17T12:01:40.427Z,10.30
2022-09-17T12:04:27.563Z,4.32
2022-09-17T12:07:01.243Z,4.05
2022-09-17T12:09:34.035Z,11.55
2022-09-17T12:12:06.866Z,6.22
2022-09-17T12:14:45.693Z,9.27
2022-09-17T12:17:21.451Z,4.80
2022-09-17T12:19:54.304Z,7.45
2022-09-17T12:22:25.726Z,5.80
2022-09-17T12:24:54.903Z,1.80
2022-09-17T12:27:35.055Z,4.07
2022-09-17T12:30:10.067Z,6.78
2022-09-17T12:36:04.502Z,3.72
2022-09-17T12:39:03.084Z,1.65
2022-09-17T12:41:41.210Z,2.33
2022-09-17T12:44:31.280Z,6.93
2022-09-17T12:47:19.688Z,1.60
2022-09-17T12:50:04.088Z,1.58
2022-09-17T12:52:45.013Z,1.48
2022-09-17T12:55:33.572Z,2.10
2022-09-17T12:58:14.015Z,1.00
2022-09-17T13:00:45.861Z,2.10
2022-09-17T13:03:22.284Z,1.73
2022-09-17T13:06:18.529Z,2.20
2022-09-17T13:09:42.493Z,2.70
2022-09-17T13:12:26.081Z,2.67
2022-09-17T13:15:30.806Z,2.67
2022-09-17T13:18:23.510Z,3.05
2022-09-17T13:21:05.684Z,6.70
2022-09-17T13:23:36.990Z,0.77
2022-09-17T13:26:07.595Z,1.95
2022-09-17T13:28:47.304Z,3.80
2022-09-17T13:31:22.349Z,5.75
2022-09-17T13:33:56.855Z,1.17
2022-09-17T13:36:47.383Z,2.75
2022-09-17T13:39:41.568Z,2.53
2022-09-17T13:42:17.310Z,0.45
2022-09-17T13:44:49.632Z,1.50
2022-09-17T13:47:26.333Z,2.17
2022-09-17T13:49:59.888Z,2.65
2022-09-17T13:52:40.171Z,4.72
2022-09-17T13:55:09.642Z,4.47
2022-09-17T13:57:51.872Z,6.15
2022-09-17T14:00:52.769Z,3.40
2022-09-17T14:03:57.142Z,3.92
2022-09-17T14:06:53.809Z,3.90
2022-09-17T14:09:50.211Z,8.07
2022-09-17T14:12:55.416Z,3.58
2022-09-17T14:15:39.463Z,2.10
2022-09-17T14:18:39.193Z,1.75
2022-09-17T14:21:15.061Z,0.90
2022-09-17T14:23:48.464Z,1.30
2022-09-17T14:26:26.674Z,1.98
2022-09-17T14:29:04.341Z,1.85
2022-09-17T14:31:36.917Z,3.13
2022-09-17T14:34:07.450Z,2.40
2022-09-17T14:36:39.705Z,4.65
2022-09-17T14:39:17.002Z,1.85
2022-09-17T14:41:46.447Z,2.50
2022-09-17T14:44:19.706Z,3.78
2022-09-17T14:46:55.169Z,2.83
2022-09-17T14:49:24.696Z,3.13
2022-09-17T14:51:53.571Z,3.28
2022-09-17T14:54:24.941Z,3.97
2022-09-17T14:56:56.170Z,5.07
2022-09-17T14:59:32.404Z,6.88
2022-09-17T15:02:00.936Z,2.72
2022-09-17T15:04:29.870Z,6.18
2022-09-17T15:07:09.638Z,2.72
2022-09-17T15:09:37.921Z,5.57
2022-09-17T15:12:08.694Z,9.38
2022-09-17T15:14:40.345Z,7.13
2022-09-17T15:17:14.806Z,7.28
2022-09-17T15:19:48.073Z,6.05
2022-09-17T15:22:19.184Z,14.52
2022-09-17T15:24:54.125Z,10.35
2022-09-17T15:27:26.051Z,4.78
2022-09-17T15:30:01.241Z,3.33
2022-09-17T15:32:29.791Z,3.90
2022-09-17T15:35:18.895Z,3.03
2022-09-17T15:38:11.467Z,1.95
2022-09-17T15:40:41.010Z,5.50
2022-09-17T15:43:18.644Z,3.65
2022-09-17T15:45:48.194Z,2.10
2022-09-17T15:48:41.482Z,5.13
2022-09-17T15:51:25.664Z,2.72
2022-09-17T15:53:55.439Z,6.68
2022-09-17T15:56:26.976Z,8.02
2022-09-17T15:58:59.773Z,6.40
2022-09-17T16:01:56.888Z,6.68
2022-09-17T16:04:27.716Z,7.55
2022-09-17T16:06:58.291Z,4.45
2022-09-17T16:09:48.839Z,6.80
2022-09-17T16:12:19.264Z,9.75
2022-09-17T16:14:49.395Z,7.40
2022-09-17T16:17:33.097Z,11.85
2022-09-17T16:20:06.530Z,12.18
2022-09-17T16:22:34.868Z,7.82
2022-09-17T16:25:03.438Z,6.90
2022-09-17T16:27:35.869Z,5.20
2022-09-17T16:30:06.548Z,7.75
2022-09-17T16:32:36.089Z,4.75
2022-09-17T16:35:05.153Z,7.53
2022-09-17T16:37:33.367Z,8.23
2022-09-17T16:40:02.080Z,7.47
2022-09-17T16:42:32.142Z,8.45
2022-09-17T16:45:03.427Z,4.13
2022-09-17T16:47:38.668Z,4.50
2022-09-17T16:50:09.309Z,8.05
2022-09-17T16:52:37.968Z,5.80
2022-09-17T16:55:09.014Z,7.72
2022-09-17T16:57:37.609Z,6.07
2022-09-17T17:00:08.473Z,6.25
2022-09-17T17:02:38.269Z,7.97
2022-09-17T17:05:07.282Z,7.07
2022-09-17T17:07:36.828Z,8.80
2022-09-17T17:10:05.411Z,7.68
2022-09-17T17:12:33.665Z,5.18
2022-09-17T17:15:02.532Z,8.63
2022-09-17T17:17:31.037Z,11.93
2022-09-17T17:20:00.807Z,5.68
2022-09-17T17:22:29.033Z,6.50
2022-09-17T17:24:58.067Z,5.30
2022-09-17T17:27:26.411Z,3.95
2022-09-17T17:29:54.661Z,8.32
2022-09-17T17:32:22.850Z,4.72
2022-09-17T17:34:51.260Z,6.50
2022-09-17T17:37:23.226Z,7.15
2022-09-17T17:39:51.441Z,9.55
2022-09-17T17:42:19.669Z,6.38
2022-09-17T17:44:48.515Z,5.30
2022-09-17T17:47:16.722Z,5.00
2022-09-17T17:49:45.134Z,5.63
2022-09-17T17:52:13.325Z,7.75
2022-09-17T17:54:43.005Z,11.13
2022-09-17T17:57:11.577Z,7.88
2022-09-17T17:59:39.802Z,7.75
2022-09-17T18:02:08.251Z,7.72
2022-09-17T18:04:36.513Z,8.35
2022-09-17T18:07:05.149Z,8.75
2022-09-17T18:09:33.492Z,8.45
2022-09-17T18:12:03.456Z,7.65
2022-09-17T18:14:31.691Z,3.90
2022-09-17T18:16:59.954Z,9.48
2022-09-17T18:19:29.746Z,6.90
2022-09-17T18:21:58.125Z,8.70
2022-09-17T18:24:26.434Z,6.13
2022-09-17T18:26:54.673Z,6.35
2022-09-17T18:29:24.402Z,6.38
2022-09-17T18:31:52.667Z,4.95
2022-09-17T18:34:20.851Z,5.10
2022-09-17T18:36:51.339Z,3.78
2022-09-17T18:39:56.730Z,3.70
2022-09-17T18:42:09.726Z,6.82
2022-09-17T18:44:39.329Z,8.02
2022-09-17T18:47:07.785Z,7.28
2022-09-17T18:49:36.070Z,6.90
2022-09-17T18:52:04.426Z,8.55
2022-09-17T18:54:32.630Z,3.40
2022-09-17T18:57:00.845Z,13.82
2022-09-17T18:59:29.088Z,9.73
2022-09-17T19:01:58.745Z,9.05
2022-09-17T19:04:29.430Z,6.47
2022-09-17T19:06:57.782Z,10.13
2022-09-17T19:09:26.136Z,6.30
2022-09-17T19:11:54.351Z,5.95
2022-09-17T19:14:22.508Z,5.32
2022-09-17T19:16:50.839Z,14.30
2022-09-17T19:19:20.543Z,5.55
2022-09-17T19:21:50.741Z,7.68
2022-09-17T19:24:18.945Z,6.53
2022-09-17T19:26:50.759Z,6.55
2022-09-17T19:29:19.174Z,4.40
2022-09-17T19:31:47.384Z,10.82
2022-09-17T19:34:15.584Z,8.60
2022-09-17T19:36:45.201Z,6.82
2022-09-17T19:39:13.976Z,5.07
2022-09-17T19:41:42.132Z,3.38
2022-09-17T19:44:10.374Z,7.18
2022-09-17T19:46:38.709Z,8.55
2022-09-17T19:49:07.041Z,3.75
2022-09-17T19:51:36.300Z,3.30
2022-09-17T19:54:06.790Z,2.15
2022-09-17T19:56:35.756Z,4.60
2022-09-17T19:59:04.173Z,3.05
2022-09-17T20:01:34.657Z,7.57
2022-09-17T20:04:03.418Z,5.93
2022-09-17T20:06:34.764Z,9.25
2022-09-17T20:09:03.159Z,9.73
2022-09-17T20:11:32.765Z,5.95
2022-09-17T20:14:03.157Z,10.55
2022-09-17T20:16:31.836Z,7.25
2022-09-17T20:19:00.414Z,4.63
2022-09-17T20:21:30.211Z,3.88
2022-09-17T20:23:58.843Z,3.42
2022-09-17T20:26:27.710Z,4.75
2022-09-17T20:28:57.468Z,7.88
2022-09-17T20:31:27.913Z,2.88
2022-09-17T20:33:57.790Z,6.93
2022-09-17T20:36:28.682Z,7.18
2022-09-17T20:39:11.537Z,6.70
2022-09-17T20:41:45.120Z,5.75
2022-09-17T20:44:14.765Z,5.35
2022-09-17T20:46:43.026Z,4.85
2022-09-17T20:49:11.259Z,7.45
2022-09-17T20:51:39.454Z,3.78
2022-09-17T20:54:08.427Z,6.32
2022-09-17T20:56:37.278Z,7.45
2022-09-17T20:59:14.449Z,4.10
2022-09-17T21:01:45.468Z,6.22
2022-09-17T21:04:16.503Z,9.25
2022-09-17T21:06:45.848Z,4.28
2022-09-17T21:09:16.827Z,10.95
2022-09-17T21:11:46.388Z,8.68
2022-09-17T21:14:15.904Z,8.10
2022-09-17T21:16:46.555Z,9.00
2022-09-17T21:19:16.251Z,10.85
2022-09-17T21:21:44.671Z,6.82
2022-09-17T21:24:13.052Z,6.07
2022-09-17T21:26:41.343Z,12.95
2022-09-17T21:29:09.693Z,9.25
2022-09-17T21:31:38.735Z,7.38
2022-09-17T21:34:11.398Z,4.70
2022-09-17T21:36:41.475Z,8.13
2022-09-17T21:39:14.418Z,4.72
2022-09-17T21:41:43.186Z,2.15
2022-09-17T21:44:12.424Z,7.25
2022-09-17T21:46:41.616Z,7.45
2022-09-17T21:49:13.658Z,5.85
2022-09-17T21:51:43.693Z,9.48
2022-09-17T21:54:13.755Z,10.30
2022-09-17T21:56:41.990Z,13.55
2022-09-17T21:59:12.932Z,5.57
2022-09-17T22:01:43.895Z,10.10
2022-09-17T22:04:15.903Z,9.77
2022-09-17T22:06:45.317Z,9.00
2022-09-17T22:09:15.991Z,10.05
2022-09-17T22:11:45.470Z,8.68
2022-09-17T22:14:15.818Z,15.85
2022-09-17T22:16:45.331Z,7.43
2022-09-17T22:19:17.175Z,12.07
2022-09-17T22:21:47.449Z,8.00
2022-09-17T22:24:17.586Z,12.60
2022-09-17T22:26:49.195Z,15.75
2022-09-17T22:29:22.073Z,12.02
2022-09-17T22:31:50.914Z,14.55
2022-09-17T22:34:22.370Z,14.48
2022-09-17T22:36:50.980Z,13.05
2022-09-17T22:39:21.888Z,6.30
2022-09-17T22:41:50.582Z,3.97
2022-09-17T22:44:20.426Z,5.80
2022-09-17T22:46:49.852Z,5.53
2022-09-17T22:49:19.069Z,6.43
2022-09-17T22:51:48.925Z,9.07
2022-09-17T22:54:18.909Z,5.53
2022-09-17T22:56:48.827Z,3.65
2022-09-17T22:59:18.203Z,5.45
2022-09-17T23:01:46.573Z,9.45
2022-09-17T23:04:14.818Z,4.28
2022-09-17T23:06:43.087Z,14.32
2022-09-17T23:09:13.397Z,8.18
2022-09-17T23:11:41.720Z,6.28
2022-09-17T23:14:13.239Z,3.65
2022-09-17T23:16:43.358Z,6.38
2022-09-17T23:19:12.838Z,6.07
2022-09-17T23:21:41.165Z,2.30
2022-09-17T23:24:10.140Z,4.28
2022-09-17T23:26:39.786Z,4.90
2022-09-17T23:29:08.155Z,3.10
2022-09-17T23:31:36.388Z,4.43
2022-09-17T23:34:06.195Z,2.85
2022-09-17T23:36:36.185Z,4.07
2022-09-17T23:39:06.383Z,6.25
2022-09-17T23:41:36.347Z,3.83
2022-09-17T23:44:13.740Z,8.98
2022-09-17T23:46:44.406Z,4.40
2022-09-17T23:49:14.382Z,6.60
2022-09-17T23:51:42.847Z,6.75
2022-09-17T23:54:11.095Z,3.40
2022-09-17T23:56:39.362Z,5.97
2022-09-17T23:59:08.955Z,3.42
